sensor_id;sensor_type;location;lat;lon;timestamp;pressure;altitude;pressure_sealevel;temperature;humidity
39105;BME280;46464;51.154;13.812;2023-07-28T00:01:51;51947.75;;;-146.96;100.00
39105;BME280;46464;51.154;13.812;2023-07-28T00:04:17;51933.50;;;-146.96;100.00
39105;BME280;46464;51.154;13.812;2023-07-28T00:06:43;51988.44;;;-146.96;100.00
39105;BME280;46464;51.154;13.812;2023-07-28T00:09:10;51925.38;;;-146.96;100.00
39105;BME280;46464;51.154;13.812;2023-07-28T00:11:37;51923.34;;;-146.96;100.00
39105;BME280;46464;51.154;13.812;2023-07-28T00:14:03;51915.19;;;-146.96;100.00
39105;BME280;46464;51.154;13.812;2023-07-28T00:16:30;51888.75;;;-146.96;100.00
39105;BME280;46464;51.154;13.812;2023-07-28T00:18:56;51939.63;;;-146.96;100.00
39105;BME280;46464;51.154;13.812;2023-07-28T00:21:22;51957.91;;;-146.96;100.00
39105;BME280;46464;51.154;13.812;2023-07-28T00:23:49;51937.56;;;-146.96;100.00
39105;BME280;46464;51.154;13.812;2023-07-28T00:26:15;51943.69;;;-146.96;100.00
39105;BME280;46464;51.154;13.812;2023-07-28T00:28:42;51921.31;;;-146.96;100.00
39105;BME280;46464;51.154;13.812;2023-07-28T00:31:27;51964.03;;;-146.96;100.00
39105;BME280;46464;51.154;13.812;2023-07-28T00:33:53;51927.41;;;-146.96;100.00
39105;BME280;46464;51.154;13.812;2023-07-28T00:36:19;51955.88;;;-146.96;100.00
39105;BME280;46464;51.154;13.812;2023-07-28T00:38:46;51919.28;;;-146.96;100.00
39105;BME280;46464;51.154;13.812;2023-07-28T00:41:12;51919.28;;;-146.96;100.00
39105;BME280;46464;51.154;13.812;2023-07-28T00:43:39;51894.84;;;-146.96;100.00
39105;BME280;46464;51.154;13.812;2023-07-28T00:46:05;51962.00;;;-146.96;100.00
39105;BME280;46464;51.154;13.812;2023-07-28T00:48:32;51927.41;;;-146.96;100.00
39105;BME280;46464;51.154;13.812;2023-07-28T00:50:59;51933.50;;;-146.96;100.00
39105;BME280;46464;51.154;13.812;2023-07-28T00:53:26;51929.44;;;-146.96;100.00
39105;BME280;46464;51.154;13.812;2023-07-28T00:55:52;51949.78;;;-146.96;100.00
39105;BME280;46464;51.154;13.812;2023-07-28T00:58:19;51917.22;;;-146.96;100.00
39105;BME280;46464;51.154;13.812;2023-07-28T01:00:45;51909.09;;;-146.96;100.00
39105;BME280;46464;51.154;13.812;2023-07-28T01:03:12;51945.72;;;-146.96;100.00
39105;BME280;46464;51.154;13.812;2023-07-28T01:05:41;51937.56;;;-146.96;100.00
39105;BME280;46464;51.154;13.812;2023-07-28T01:08:11;51911.13;;;-146.96;100.00
39105;BME280;46464;51.154;13.812;2023-07-28T01:10:42;51909.09;;;-146.96;100.00
39105;BME280;46464;51.154;13.812;2023-07-28T01:13:09;51923.34;;;-146.96;100.00
39105;BME280;46464;51.154;13.812;2023-07-28T01:15:36;51900.97;;;-146.96;100.00
39105;BME280;46464;51.154;13.812;2023-07-28T01:18:02;51890.78;;;-146.96;100.00
39105;BME280;46464;51.154;13.812;2023-07-28T01:20:29;51943.69;;;-146.96;100.00
39105;BME280;46464;51.154;13.812;2023-07-28T01:28:20;51927.41;;;-146.96;100.00
39105;BME280;46464;51.154;13.812;2023-07-28T01:30:46;51927.41;;;-146.96;100.00
39105;BME280;46464;51.154;13.812;2023-07-28T01:33:13;51923.34;;;-146.96;100.00
39105;BME280;46464;51.154;13.812;2023-07-28T01:35:40;51925.38;;;-146.96;100.00
39105;BME280;46464;51.154;13.812;2023-07-28T01:38:06;51903.00;;;-146.96;100.00
39105;BME280;46464;51.154;13.812;2023-07-28T01:40:33;51929.44;;;-146.96;100.00
39105;BME280;46464;51.154;13.812;2023-07-28T01:42:59;51898.91;;;-146.96;100.00
39105;BME280;46464;51.154;13.812;2023-07-28T01:45:25;51892.81;;;-146.96;100.00
39105;BME280;46464;51.154;13.812;2023-07-28T01:47:52;51919.28;;;-146.96;100.00
39105;BME280;46464;51.154;13.812;2023-07-28T01:50:19;51931.47;;;-146.96;100.00
39105;BME280;46464;51.154;13.812;2023-07-28T01:52:45;51923.34;;;-146.96;100.00
39105;BME280;46464;51.154;13.812;2023-07-28T01:55:12;51911.13;;;-146.96;100.00
39105;BME280;46464;51.154;13.812;2023-07-28T01:57:38;51909.09;;;-146.96;100.00
39105;BME280;46464;51.154;13.812;2023-07-28T02:00:06;51923.34;;;-146.96;100.00
39105;BME280;46464;51.154;13.812;2023-07-28T02:02:32;51919.28;;;-146.96;100.00
39105;BME280;46464;51.154;13.812;2023-07-28T02:04:59;51947.75;;;-146.96;100.00
39105;BME280;46464;51.154;13.812;2023-07-28T02:07:25;51949.78;;;-146.96;100.00
39105;BME280;46464;51.154;13.812;2023-07-28T02:09:52;51931.47;;;-146.96;100.00
39105;BME280;46464;51.154;13.812;2023-07-28T02:12:18;51907.06;;;-146.96;100.00
39105;BME280;46464;51.154;13.812;2023-07-28T02:14:44;51933.50;;;-146.96;100.00
39105;BME280;46464;51.154;13.812;2023-07-28T02:17:11;51907.06;;;-146.96;100.00
39105;BME280;46464;51.154;13.812;2023-07-28T02:19:37;51937.56;;;-146.96;100.00
39105;BME280;46464;51.154;13.812;2023-07-28T02:25:32;51898.91;;;-146.96;100.00
39105;BME280;46464;51.154;13.812;2023-07-28T02:27:59;51919.28;;;-146.96;100.00
39105;BME280;46464;51.154;13.812;2023-07-28T02:30:25;51935.53;;;-146.96;100.00
39105;BME280;46464;51.154;13.812;2023-07-28T02:32:52;51892.81;;;-146.96;100.00
39105;BME280;46464;51.154;13.812;2023-07-28T02:35:18;51913.16;;;-146.96;100.00
39105;BME280;46464;51.154;13.812;2023-07-28T02:37:47;51923.34;;;-146.96;100.00
39105;BME280;46464;51.154;13.812;2023-07-28T02:40:13;51925.38;;;-146.96;100.00
39105;BME280;46464;51.154;13.812;2023-07-28T02:42:41;51933.50;;;-146.96;100.00
39105;BME280;46464;51.154;13.812;2023-07-28T02:45:08;51929.44;;;-146.96;100.00
39105;BME280;46464;51.154;13.812;2023-07-28T02:47:37;51919.28;;;-146.96;100.00
39105;BME280;46464;51.154;13.812;2023-07-28T02:50:04;51896.88;;;-146.96;100.00
39105;BME280;46464;51.154;13.812;2023-07-28T02:52:31;51933.50;;;-146.96;100.00
39105;BME280;46464;51.154;13.812;2023-07-28T02:54:57;51931.47;;;-146.96;100.00
39105;BME280;46464;51.154;13.812;2023-07-28T03:00:52;51931.47;;;-146.96;100.00
39105;BME280;46464;51.154;13.812;2023-07-28T03:03:19;51931.47;;;-146.96;100.00
39105;BME280;46464;51.154;13.812;2023-07-28T03:05:46;51931.47;;;-146.96;100.00
39105;BME280;46464;51.154;13.812;2023-07-28T03:08:12;51929.44;;;-146.96;100.00
39105;BME280;46464;51.154;13.812;2023-07-28T03:10:39;51921.31;;;-146.96;100.00
39105;BME280;46464;51.154;13.812;2023-07-28T03:13:05;51931.47;;;-146.96;100.00
39105;BME280;46464;51.154;13.812;2023-07-28T03:15:32;51925.38;;;-146.96;100.00
39105;BME280;46464;51.154;13.812;2023-07-28T03:17:58;51933.50;;;-146.96;100.00
39105;BME280;46464;51.154;13.812;2023-07-28T03:20:24;51915.19;;;-146.96;100.00
39105;BME280;46464;51.154;13.812;2023-07-28T03:22:51;51911.13;;;-146.96;100.00
39105;BME280;46464;51.154;13.812;2023-07-28T03:25:18;51943.69;;;-146.96;100.00
39105;BME280;46464;51.154;13.812;2023-07-28T03:27:44;51886.72;;;-146.96;100.00
39105;BME280;46464;51.154;13.812;2023-07-28T03:30:11;51919.28;;;-146.96;100.00
39105;BME280;46464;51.154;13.812;2023-07-28T03:32:38;51941.66;;;-146.96;100.00
39105;BME280;46464;51.154;13.812;2023-07-28T03:35:04;51943.69;;;-146.96;100.00
39105;BME280;46464;51.154;13.812;2023-07-28T03:37:32;51949.78;;;-146.96;100.00
39105;BME280;46464;51.154;13.812;2023-07-28T03:40:14;51974.19;;;-146.96;100.00
39105;BME280;46464;51.154;13.812;2023-07-28T03:42:41;51972.16;;;-146.96;100.00
39105;BME280;46464;51.154;13.812;2023-07-28T03:45:07;51943.69;;;-146.96;100.00
39105;BME280;46464;51.154;13.812;2023-07-28T03:47:34;51931.47;;;-146.96;100.00
39105;BME280;46464;51.154;13.812;2023-07-28T03:50:01;51941.66;;;-146.96;100.00
39105;BME280;46464;51.154;13.812;2023-07-28T03:52:27;51931.47;;;-146.96;100.00
39105;BME280;46464;51.154;13.812;2023-07-28T03:54:53;51909.09;;;-146.96;100.00
39105;BME280;46464;51.154;13.812;2023-07-28T03:57:20;51937.56;;;-146.96;100.00
39105;BME280;46464;51.154;13.812;2023-07-28T03:59:46;51939.63;;;-146.96;100.00
39105;BME280;46464;51.154;13.812;2023-07-28T04:02:13;51947.75;;;-146.96;100.00
39105;BME280;46464;51.154;13.812;2023-07-28T04:04:39;51935.53;;;-146.96;100.00
39105;BME280;46464;51.154;13.812;2023-07-28T04:07:06;51955.88;;;-146.96;100.00
39105;BME280;46464;51.154;13.812;2023-07-28T04:09:33;51962.00;;;-146.96;100.00
39105;BME280;46464;51.154;13.812;2023-07-28T04:11:59;51943.69;;;-146.96;100.00
39105;BME280;46464;51.154;13.812;2023-07-28T04:14:26;51939.63;;;-146.96;100.00
39105;BME280;46464;51.154;13.812;2023-07-28T04:16:52;51955.88;;;-146.96;100.00
39105;BME280;46464;51.154;13.812;2023-07-28T04:19:19;51949.78;;;-146.96;100.00
39105;BME280;46464;51.154;13.812;2023-07-28T04:21:45;51927.41;;;-146.96;100.00
39105;BME280;46464;51.154;13.812;2023-07-28T04:24:12;51941.66;;;-146.96;100.00
39105;BME280;46464;51.154;13.812;2023-07-28T04:30:07;51921.31;;;-146.96;100.00
39105;BME280;46464;51.154;13.812;2023-07-28T04:32:34;51909.09;;;-146.96;100.00
39105;BME280;46464;51.154;13.812;2023-07-28T04:35:01;51917.22;;;-146.96;98.92
39105;BME280;46464;51.154;13.812;2023-07-28T04:37:27;51933.50;;;-146.96;100.00
39105;BME280;46464;51.154;13.812;2023-07-28T04:39:54;51911.13;;;-146.96;99.38
39105;BME280;46464;51.154;13.812;2023-07-28T04:42:20;51903.00;;;-146.96;98.49
39105;BME280;46464;51.154;13.812;2023-07-28T04:44:47;51898.91;;;-146.96;97.49
39105;BME280;46464;51.154;13.812;2023-07-28T04:47:13;51935.53;;;-146.96;97.04
39105;BME280;46464;51.154;13.812;2023-07-28T04:49:40;51923.34;;;-146.96;98.05
39105;BME280;46464;51.154;13.812;2023-07-28T04:52:07;51941.66;;;-146.96;97.68
39105;BME280;46464;51.154;13.812;2023-07-28T04:54:33;51953.84;;;-146.96;97.65
39105;BME280;46464;51.154;13.812;2023-07-28T04:56:59;51892.81;;;-146.96;98.11
39105;BME280;46464;51.154;13.812;2023-07-28T04:59:26;51907.06;;;-146.96;96.90
39105;BME280;46464;51.154;13.812;2023-07-28T05:01:52;51919.28;;;-146.96;95.87
39105;BME280;46464;51.154;13.812;2023-07-28T05:04:19;51923.34;;;-146.96;95.56
39105;BME280;46464;51.154;13.812;2023-07-28T05:06:45;51905.03;;;-146.96;94.89
39105;BME280;46464;51.154;13.812;2023-07-28T05:09:12;51882.66;;;-146.96;95.45
39105;BME280;46464;51.154;13.812;2023-07-28T05:11:38;51923.34;;;-146.96;95.47
39105;BME280;46464;51.154;13.812;2023-07-28T05:14:05;51923.34;;;-146.96;95.28
39105;BME280;46464;51.154;13.812;2023-07-28T05:16:35;51903.00;;;-146.96;94.52
39105;BME280;46464;51.154;13.812;2023-07-28T05:19:01;51868.41;;;-146.96;94.58
39105;BME280;46464;51.154;13.812;2023-07-28T05:21:27;51911.13;;;-146.96;94.60
39105;BME280;46464;51.154;13.812;2023-07-28T05:23:55;51907.06;;;-146.96;94.65
39105;BME280;46464;51.154;13.812;2023-07-28T05:26:21;51921.31;;;-146.96;92.97
39105;BME280;46464;51.154;13.812;2023-07-28T05:28:48;51907.06;;;-146.96;92.99
39105;BME280;46464;51.154;13.812;2023-07-28T05:31:14;51921.31;;;-146.96;92.65
39105;BME280;46464;51.154;13.812;2023-07-28T05:33:41;51935.53;;;-146.96;91.81
39105;BME280;46464;51.154;13.812;2023-07-28T05:36:08;51935.53;;;-146.96;91.42
39105;BME280;46464;51.154;13.812;2023-07-28T05:38:34;51927.41;;;-146.96;91.50
39105;BME280;46464;51.154;13.812;2023-07-28T05:41:01;51882.66;;;-146.96;91.06
39105;BME280;46464;51.154;13.812;2023-07-28T05:43:29;51894.84;;;-146.96;91.07
39105;BME280;46464;51.154;13.812;2023-07-28T05:45:57;51911.13;;;-146.96;91.78
39105;BME280;46464;51.154;13.812;2023-07-28T05:48:24;51892.81;;;-146.96;92.30
39105;BME280;46464;51.154;13.812;2023-07-28T05:50:51;51884.69;;;-146.96;93.26
39105;BME280;46464;51.154;13.812;2023-07-28T05:53:20;51927.41;;;-146.96;94.21
39105;BME280;46464;51.154;13.812;2023-07-28T05:55:47;51925.38;;;-146.96;93.33
39105;BME280;46464;51.154;13.812;2023-07-28T05:58:15;51882.66;;;-146.96;92.87
39105;BME280;46464;51.154;13.812;2023-07-28T06:00:41;51923.34;;;-146.96;93.35
39105;BME280;46464;51.154;13.812;2023-07-28T06:03:11;51886.72;;;-146.96;93.35
39105;BME280;46464;51.154;13.812;2023-07-28T06:05:41;51911.13;;;-146.96;91.91
39105;BME280;46464;51.154;13.812;2023-07-28T06:08:08;51882.66;;;-146.96;92.64
39105;BME280;46464;51.154;13.812;2023-07-28T06:10:34;51894.84;;;-146.96;92.19
39105;BME280;46464;51.154;13.812;2023-07-28T06:13:01;51915.19;;;-146.96;90.08
39105;BME280;46464;51.154;13.812;2023-07-28T06:15:28;51892.81;;;-146.96;89.52
39105;BME280;46464;51.154;13.812;2023-07-28T06:17:54;51884.69;;;-146.96;89.52
39105;BME280;46464;51.154;13.812;2023-07-28T06:20:21;51888.75;;;-146.96;88.10
39105;BME280;46464;51.154;13.812;2023-07-28T06:22:47;51852.13;;;-146.96;86.79
39105;BME280;46464;51.154;13.812;2023-07-28T06:25:13;51829.75;;;-146.96;83.14
39105;BME280;46464;51.154;13.812;2023-07-28T06:27:40;51831.78;;;-146.96;82.19
39105;BME280;46464;51.154;13.812;2023-07-28T06:30:06;51811.44;;;-146.96;80.53
39105;BME280;46464;51.154;13.812;2023-07-28T06:32:33;51811.44;;;-146.96;77.26
39105;BME280;46464;51.154;13.812;2023-07-28T06:34:59;51734.13;;;-146.96;74.35
39105;BME280;46464;51.154;13.812;2023-07-28T06:37:26;51782.97;;;-146.96;75.61
39105;BME280;46464;51.154;13.812;2023-07-28T06:39:53;51793.13;;;-146.96;76.30
39105;BME280;46464;51.154;13.812;2023-07-28T06:42:22;51752.44;;;-146.96;75.38
39105;BME280;46464;51.154;13.812;2023-07-28T06:44:50;51746.34;;;-146.96;76.57
39105;BME280;46464;51.154;13.812;2023-07-28T06:47:17;51817.53;;;-146.96;78.28
39105;BME280;46464;51.154;13.812;2023-07-28T06:49:44;51825.69;;;-146.96;80.38
39105;BME280;46464;51.154;13.812;2023-07-28T06:52:10;51809.41;;;-146.96;81.86
39105;BME280;46464;51.154;13.812;2023-07-28T06:54:37;51821.63;;;-146.96;82.14
39105;BME280;46464;51.154;13.812;2023-07-28T06:57:03;51819.56;;;-146.96;81.95
39105;BME280;46464;51.154;13.812;2023-07-28T06:59:30;51841.97;;;-146.96;80.63
39105;BME280;46464;51.154;13.812;2023-07-28T07:01:57;51856.19;;;-146.96;80.54
39105;BME280;46464;51.154;13.812;2023-07-28T07:04:23;51829.75;;;-146.96;80.65
39105;BME280;46464;51.154;13.812;2023-07-28T07:06:50;51825.69;;;-146.96;80.55
39105;BME280;46464;51.154;13.812;2023-07-28T07:09:16;51852.13;;;-146.96;81.67
39105;BME280;46464;51.154;13.812;2023-07-28T07:11:43;51888.75;;;-146.96;81.17
39105;BME280;46464;51.154;13.812;2023-07-28T07:14:09;51903.00;;;-146.96;82.23
39105;BME280;46464;51.154;13.812;2023-07-28T07:16:35;51854.16;;;-146.96;82.86
39105;BME280;46464;51.154;13.812;2023-07-28T07:19:02;51872.47;;;-146.96;83.21
39105;BME280;46464;51.154;13.812;2023-07-28T07:21:31;51872.47;;;-146.96;83.04
39105;BME280;46464;51.154;13.812;2023-07-28T07:23:58;51827.72;;;-146.96;82.97
39105;BME280;46464;51.154;13.812;2023-07-28T07:26:24;51837.88;;;-146.96;81.01
39105;BME280;46464;51.154;13.812;2023-07-28T07:28:50;51841.97;;;-146.96;81.92
39105;BME280;46464;51.154;13.812;2023-07-28T07:31:17;51839.91;;;-146.96;80.43
39105;BME280;46464;51.154;13.812;2023-07-28T07:33:43;51848.06;;;-146.96;80.93
39105;BME280;46464;51.154;13.812;2023-07-28T07:36:13;51862.31;;;-146.96;81.48
39105;BME280;46464;51.154;13.812;2023-07-28T07:38:40;51825.69;;;-146.96;80.47
39105;BME280;46464;51.154;13.812;2023-07-28T07:41:07;51858.22;;;-146.96;81.47
39105;BME280;46464;51.154;13.812;2023-07-28T07:43:35;51850.09;;;-146.96;80.79
39105;BME280;46464;51.154;13.812;2023-07-28T07:46:01;51862.31;;;-146.96;80.49
39105;BME280;46464;51.154;13.812;2023-07-28T07:48:28;51841.97;;;-146.96;80.93
39105;BME280;46464;51.154;13.812;2023-07-28T07:50:54;51839.91;;;-146.96;82.30
39105;BME280;46464;51.154;13.812;2023-07-28T07:53:21;51813.47;;;-146.96;81.12
39105;BME280;46464;51.154;13.812;2023-07-28T07:55:47;51837.88;;;-146.96;79.40
39105;BME280;46464;51.154;13.812;2023-07-28T07:58:14;51850.09;;;-146.96;79.64
39105;BME280;46464;51.154;13.812;2023-07-28T08:00:40;51846.03;;;-146.96;79.65
39105;BME280;46464;51.154;13.812;2023-07-28T08:03:07;51844.00;;;-146.96;79.69
39105;BME280;46464;51.154;13.812;2023-07-28T08:05:33;51856.19;;;-146.96;79.88
39105;BME280;46464;51.154;13.812;2023-07-28T08:08:00;51858.22;;;-146.96;80.51
39105;BME280;46464;51.154;13.812;2023-07-28T08:10:26;51821.63;;;-146.96;79.99
39105;BME280;46464;51.154;13.812;2023-07-28T08:12:53;51823.66;;;-146.96;79.43
39105;BME280;46464;51.154;13.812;2023-07-28T08:15:20;51801.25;;;-146.96;79.37
39105;BME280;46464;51.154;13.812;2023-07-28T08:17:47;51872.47;;;-146.96;79.49
39105;BME280;46464;51.154;13.812;2023-07-28T08:23:42;51854.16;;;-146.96;78.73
39105;BME280;46464;51.154;13.812;2023-07-28T08:26:09;51837.88;;;-146.96;79.68
39105;BME280;46464;51.154;13.812;2023-07-28T08:28:35;51860.25;;;-146.96;79.04
39105;BME280;46464;51.154;13.812;2023-07-28T08:31:02;51837.88;;;-146.96;79.08
39105;BME280;46464;51.154;13.812;2023-07-28T08:33:30;51848.06;;;-146.96;79.08
39105;BME280;46464;51.154;13.812;2023-07-28T08:35:56;51862.31;;;-146.96;78.97
39105;BME280;46464;51.154;13.812;2023-07-28T08:38:23;51860.25;;;-146.96;79.30
39105;BME280;46464;51.154;13.812;2023-07-28T08:40:49;51844.00;;;-146.96;79.06
39105;BME280;46464;51.154;13.812;2023-07-28T08:43:16;51839.91;;;-146.96;78.66
39105;BME280;46464;51.154;13.812;2023-07-28T08:45:42;51819.56;;;-146.96;76.57
39105;BME280;46464;51.154;13.812;2023-07-28T08:48:08;51829.75;;;-146.96;76.33
39105;BME280;46464;51.154;13.812;2023-07-28T08:50:35;51825.69;;;-146.96;76.79
39105;BME280;46464;51.154;13.812;2023-07-28T08:53:02;51821.63;;;-146.96;76.76
39105;BME280;46464;51.154;13.812;2023-07-28T08:55:28;51823.66;;;-146.96;76.87
39105;BME280;46464;51.154;13.812;2023-07-28T08:57:55;51852.13;;;-146.96;76.71
39105;BME280;46464;51.154;13.812;2023-07-28T09:00:21;51817.53;;;-146.96;77.01
39105;BME280;46464;51.154;13.812;2023-07-28T09:02:49;51811.44;;;-146.96;78.13
39105;BME280;46464;51.154;13.812;2023-07-28T09:05:17;51835.84;;;-146.96;77.97
39105;BME280;46464;51.154;13.812;2023-07-28T09:07:44;51821.63;;;-146.96;77.26
39105;BME280;46464;51.154;13.812;2023-07-28T09:10:11;51809.41;;;-146.96;78.83
39105;BME280;46464;51.154;13.812;2023-07-28T09:12:47;51801.25;;;-146.96;76.21
39105;BME280;46464;51.154;13.812;2023-07-28T09:15:15;51807.38;;;-146.96;77.25
39105;BME280;46464;51.154;13.812;2023-07-28T09:17:43;51791.09;;;-146.96;76.76
39105;BME280;46464;51.154;13.812;2023-07-28T09:20:14;51742.28;;;-146.96;75.47
39105;BME280;46464;51.154;13.812;2023-07-28T09:22:44;51815.50;;;-146.96;73.51
39105;BME280;46464;51.154;13.812;2023-07-28T09:25:11;51780.91;;;-146.96;72.47
39105;BME280;46464;51.154;13.812;2023-07-28T09:27:38;51758.53;;;-146.96;73.62
39105;BME280;46464;51.154;13.812;2023-07-28T09:30:05;51797.19;;;-146.96;73.11
39105;BME280;46464;51.154;13.812;2023-07-28T09:32:33;51776.84;;;-146.96;72.67
39105;BME280;46464;51.154;13.812;2023-07-28T09:35:05;51730.06;;;-146.96;71.91
39105;BME280;46464;51.154;13.812;2023-07-28T09:37:31;51782.97;;;-146.96;71.93
39105;BME280;46464;51.154;13.812;2023-07-28T09:39:58;51760.56;;;-146.96;71.03
39105;BME280;46464;51.154;13.812;2023-07-28T09:42:24;51719.88;;;-146.96;70.08
39105;BME280;46464;51.154;13.812;2023-07-28T09:44:51;51683.28;;;-146.96;69.85
39105;BME280;46464;51.154;13.812;2023-07-28T09:47:17;51669.03;;;-146.96;71.05
39105;BME280;46464;51.154;13.812;2023-07-28T09:49:46;51642.59;;;-146.96;67.15
39105;BME280;46464;51.154;13.812;2023-07-28T09:52:14;51691.41;;;-146.96;67.07
39105;BME280;46464;51.154;13.812;2023-07-28T09:54:43;51662.94;;;-146.96;65.61
39105;BME280;46464;51.154;13.812;2023-07-28T09:57:13;51683.28;;;-146.96;65.71
39105;BME280;46464;51.154;13.812;2023-07-28T09:59:41;51693.44;;;-146.96;65.23
39105;BME280;46464;51.154;13.812;2023-07-28T10:02:08;51711.75;;;-146.96;66.49
39105;BME280;46464;51.154;13.812;2023-07-28T10:04:35;51689.38;;;-146.96;66.12
39105;BME280;46464;51.154;13.812;2023-07-28T10:07:02;51711.75;;;-146.96;66.75
39105;BME280;46464;51.154;13.812;2023-07-28T10:09:30;51715.81;;;-146.96;67.61
39105;BME280;46464;51.154;13.812;2023-07-28T10:11:57;51703.63;;;-146.96;68.02
39105;BME280;46464;51.154;13.812;2023-07-28T10:14:30;51691.41;;;-146.96;66.01
39105;BME280;46464;51.154;13.812;2023-07-28T10:16:58;51691.41;;;-146.96;66.46
39105;BME280;46464;51.154;13.812;2023-07-28T10:19:27;51691.41;;;-146.96;65.58
39105;BME280;46464;51.154;13.812;2023-07-28T10:22:00;51732.09;;;-146.96;66.18
39105;BME280;46464;51.154;13.812;2023-07-28T10:27:36;51711.75;;;-146.96;66.85
39105;BME280;46464;51.154;13.812;2023-07-28T10:30:14;51717.84;;;-146.96;68.50
39105;BME280;46464;51.154;13.812;2023-07-28T10:32:42;51730.06;;;-146.96;68.45
39105;BME280;46464;51.154;13.812;2023-07-28T10:37:44;51730.06;;;-146.96;66.36
39105;BME280;46464;51.154;13.812;2023-07-28T10:40:28;51689.38;;;-146.96;65.37
39105;BME280;46464;51.154;13.812;2023-07-28T10:42:56;51667.00;;;-146.96;64.98
39105;BME280;46464;51.154;13.812;2023-07-28T10:45:24;51699.53;;;-146.96;62.92
39105;BME280;46464;51.154;13.812;2023-07-28T10:47:51;51658.84;;;-146.96;63.74
39105;BME280;46464;51.154;13.812;2023-07-28T10:50:19;51626.31;;;-146.96;63.49
39105;BME280;46464;51.154;13.812;2023-07-28T10:52:46;51642.59;;;-146.96;62.06
39105;BME280;46464;51.154;13.812;2023-07-28T10:55:13;51654.78;;;-146.96;62.77
39105;BME280;46464;51.154;13.812;2023-07-28T10:57:43;51675.13;;;-146.96;63.58
39105;BME280;46464;51.154;13.812;2023-07-28T11:00:11;51703.63;;;-146.96;62.98
39105;BME280;46464;51.154;13.812;2023-07-28T11:02:42;51667.00;;;-146.96;61.33
39105;BME280;46464;51.154;13.812;2023-07-28T11:05:10;51658.84;;;-146.96;62.38
39105;BME280;46464;51.154;13.812;2023-07-28T11:07:38;51624.28;;;-146.96;60.17
39105;BME280;46464;51.154;13.812;2023-07-28T11:10:06;51618.16;;;-146.96;59.67
39105;BME280;46464;51.154;13.812;2023-07-28T11:12:33;51620.19;;;-146.96;58.89
39105;BME280;46464;51.154;13.812;2023-07-28T11:15:00;51589.69;;;-146.96;58.96
39105;BME280;46464;51.154;13.812;2023-07-28T11:17:26;51563.25;;;-146.96;58.81
39105;BME280;46464;51.154;13.812;2023-07-28T11:19:53;51555.09;;;-146.96;58.40
39105;BME280;46464;51.154;13.812;2023-07-28T11:22:21;51573.41;;;-146.96;57.70
39105;BME280;46464;51.154;13.812;2023-07-28T11:24:50;51632.41;;;-146.96;58.17
39105;BME280;46464;51.154;13.812;2023-07-28T11:27:16;51614.09;;;-146.96;59.05
39105;BME280;46464;51.154;13.812;2023-07-28T11:29:43;51597.81;;;-146.96;58.29
39105;BME280;46464;51.154;13.812;2023-07-28T11:32:09;51573.41;;;-146.96;57.67
39105;BME280;46464;51.154;13.812;2023-07-28T11:34:36;51557.13;;;-146.96;56.93
39105;BME280;46464;51.154;13.812;2023-07-28T11:37:02;51563.25;;;-146.96;55.50
39105;BME280;46464;51.154;13.812;2023-07-28T11:39:31;51585.63;;;-146.96;56.75
39105;BME280;46464;51.154;13.812;2023-07-28T11:41:58;51581.56;;;-146.96;56.71
39105;BME280;46464;51.154;13.812;2023-07-28T11:44:25;51581.56;;;-146.96;55.60
39105;BME280;46464;51.154;13.812;2023-07-28T11:46:51;51624.28;;;-146.96;56.18
39105;BME280;46464;51.154;13.812;2023-07-28T11:49:21;51612.06;;;-146.96;57.71
39105;BME280;46464;51.154;13.812;2023-07-28T11:51:50;51603.94;;;-146.96;58.11
39105;BME280;46464;51.154;13.812;2023-07-28T11:54:21;51628.34;;;-146.96;57.21
39105;BME280;46464;51.154;13.812;2023-07-28T11:56:49;51620.19;;;-146.96;57.89
39105;BME280;46464;51.154;13.812;2023-07-28T11:59:16;51589.69;;;-146.96;57.14
39105;BME280;46464;51.154;13.812;2023-07-28T12:01:56;51579.50;;;-146.96;56.40
39105;BME280;46464;51.154;13.812;2023-07-28T12:04:26;51559.16;;;-146.96;55.79
39105;BME280;46464;51.154;13.812;2023-07-28T12:07:16;51544.94;;;-146.96;55.63
39105;BME280;46464;51.154;13.812;2023-07-28T12:12:12;51528.66;;;-146.96;54.55
39105;BME280;46464;51.154;13.812;2023-07-28T12:14:50;51528.66;;;-146.96;52.41
39105;BME280;46464;51.154;13.812;2023-07-28T12:17:23;51487.97;;;-146.96;53.36
39105;BME280;46464;51.154;13.812;2023-07-28T12:19:59;51463.56;;;-146.96;52.70
39105;BME280;46464;51.154;13.812;2023-07-28T12:22:27;51459.50;;;-146.96;51.42
39105;BME280;46464;51.154;13.812;2023-07-28T12:24:54;51485.94;;;-146.96;51.27
39105;BME280;46464;51.154;13.812;2023-07-28T12:27:20;51483.91;;;-146.96;50.78
39105;BME280;46464;51.154;13.812;2023-07-28T12:29:58;51506.28;;;-146.96;49.96
39105;BME280;46464;51.154;13.812;2023-07-28T12:32:29;51496.09;;;-146.96;50.23
39105;BME280;46464;51.154;13.812;2023-07-28T12:34:58;51477.81;;;-146.96;51.23
39105;BME280;46464;51.154;13.812;2023-07-28T12:37:25;51483.91;;;-146.96;50.67
39105;BME280;46464;51.154;13.812;2023-07-28T12:39:54;51500.19;;;-146.96;48.62
39105;BME280;46464;51.154;13.812;2023-07-28T12:42:30;51500.19;;;-146.96;49.82
39105;BME280;46464;51.154;13.812;2023-07-28T12:45:17;51479.84;;;-146.96;50.37
39105;BME280;46464;51.154;13.812;2023-07-28T12:47:46;51496.09;;;-146.96;49.17
39105;BME280;46464;51.154;13.812;2023-07-28T12:50:23;51463.56;;;-146.96;49.52
39105;BME280;46464;51.154;13.812;2023-07-28T12:52:50;51467.63;;;-146.96;49.86
39105;BME280;46464;51.154;13.812;2023-07-28T12:55:19;51459.50;;;-146.96;47.50